sensor_id;sensor_type;location;lat;lon;timestamp;temperature;humidity
19809;DHT22;48538;32.784;-96.802;2022-07-03T00:02:19;32.90;99.90
19809;DHT22;48538;32.784;-96.802;2022-07-03T00:04:45;32.90;99.90
19809;DHT22;48538;32.784;-96.802;2022-07-03T00:07:11;32.80;99.90
19809;DHT22;48538;32.784;-96.802;2022-07-03T00:09:37;32.80;99.90
19809;DHT22;48538;32.784;-96.802;2022-07-03T00:12:04;32.80;99.90
19809;DHT22;48538;32.784;-96.802;2022-07-03T00:14:31;32.70;99.90
19809;DHT22;48538;32.784;-96.802;2022-07-03T00:16:58;32.70;99.90
19809;DHT22;48538;32.784;-96.802;2022-07-03T00:19:24;32.60;99.90
19809;DHT22;48538;32.784;-96.802;2022-07-03T00:21:52;32.60;99.90
19809;DHT22;48538;32.784;-96.802;2022-07-03T00:24:44;32.60;99.90
19809;DHT22;48538;32.784;-96.802;2022-07-03T00:27:12;32.60;99.90
19809;DHT22;48538;32.784;-96.802;2022-07-03T00:29:44;32.70;99.90
19809;DHT22;48538;32.784;-96.802;2022-07-03T00:32:12;32.60;99.90
19809;DHT22;48538;32.784;-96.802;2022-07-03T00:34:40;32.60;99.90
19809;DHT22;48538;32.784;-96.802;2022-07-03T00:37:09;32.60;99.90
19809;DHT22;48538;32.784;-96.802;2022-07-03T00:39:37;32.60;99.90
19809;DHT22;48538;32.784;-96.802;2022-07-03T00:42:06;32.50;99.90
19809;DHT22;48538;32.784;-96.802;2022-07-03T00:47:11;32.40;99.90
19809;DHT22;48538;32.784;-96.802;2022-07-03T00:49:39;32.30;99.90
19809;DHT22;48538;32.784;-96.802;2022-07-03T00:52:06;32.30;99.90
19809;DHT22;48538;32.784;-96.802;2022-07-03T00:54:35;32.30;99.90
19809;DHT22;48538;32.784;-96.802;2022-07-03T00:57:03;32.20;99.90
19809;DHT22;48538;32.784;-96.802;2022-07-03T00:59:29;32.10;99.90
19809;DHT22;48538;32.784;-96.802;2022-07-03T01:02:06;32.10;99.90
19809;DHT22;48538;32.784;-96.802;2022-07-03T01:07:40;31.80;99.90
19809;DHT22;48538;32.784;-96.802;2022-07-03T01:15:50;31.40;99.90
19809;DHT22;48538;32.784;-96.802;2022-07-03T01:21:15;31.20;99.90
19809;DHT22;48538;32.784;-96.802;2022-07-03T01:26:37;31.00;99.90
19809;DHT22;48538;32.784;-96.802;2022-07-03T01:29:09;30.90;99.90
19809;DHT22;48538;32.784;-96.802;2022-07-03T01:31:40;30.80;99.90
19809;DHT22;48538;32.784;-96.802;2022-07-03T01:34:13;30.70;99.90
19809;DHT22;48538;32.784;-96.802;2022-07-03T01:36:43;30.60;99.90
19809;DHT22;48538;32.784;-96.802;2022-07-03T01:39:16;30.50;99.90
19809;DHT22;48538;32.784;-96.802;2022-07-03T01:41:45;30.40;99.90
19809;DHT22;48538;32.784;-96.802;2022-07-03T01:44:14;30.30;99.90
19809;DHT22;48538;32.784;-96.802;2022-07-03T01:46:42;30.20;99.90
19809;DHT22;48538;32.784;-96.802;2022-07-03T01:49:13;30.20;99.90
19809;DHT22;48538;32.784;-96.802;2022-07-03T01:51:42;30.00;99.90
19809;DHT22;48538;32.784;-96.802;2022-07-03T01:54:10;30.00;99.90
19809;DHT22;48538;32.784;-96.802;2022-07-03T01:56:37;29.90;99.90
19809;DHT22;48538;32.784;-96.802;2022-07-03T01:59:03;29.90;99.90
19809;DHT22;48538;32.784;-96.802;2022-07-03T02:01:51;29.90;99.90
19809;DHT22;48538;32.784;-96.802;2022-07-03T02:09:34;29.60;99.90
19809;DHT22;48538;32.784;-96.802;2022-07-03T02:12:02;29.60;99.90
19809;DHT22;48538;32.784;-96.802;2022-07-03T02:14:36;29.40;99.90
19809;DHT22;48538;32.784;-96.802;2022-07-03T02:17:20;29.40;99.90
19809;DHT22;48538;32.784;-96.802;2022-07-03T02:19:57;29.30;99.90
19809;DHT22;48538;32.784;-96.802;2022-07-03T02:22:34;29.30;99.90
19809;DHT22;48538;32.784;-96.802;2022-07-03T02:25:12;29.20;99.90
19809;DHT22;48538;32.784;-96.802;2022-07-03T02:27:43;29.20;99.90
19809;DHT22;48538;32.784;-96.802;2022-07-03T02:30:13;29.00;99.90
19809;DHT22;48538;32.784;-96.802;2022-07-03T02:32:50;29.00;99.90
19809;DHT22;48538;32.784;-96.802;2022-07-03T02:35:29;29.00;99.90
19809;DHT22;48538;32.784;-96.802;2022-07-03T02:38:19;29.00;99.90
19809;DHT22;48538;32.784;-96.802;2022-07-03T02:41:10;29.00;99.90
19809;DHT22;48538;32.784;-96.802;2022-07-03T02:52:17;28.70;99.90
19809;DHT22;48538;32.784;-96.802;2022-07-03T02:54:44;28.70;99.90
19809;DHT22;48538;32.784;-96.802;2022-07-03T02:57:14;28.70;99.90
19809;DHT22;48538;32.784;-96.802;2022-07-03T03:02:23;28.50;99.90
19809;DHT22;48538;32.784;-96.802;2022-07-03T03:05:02;28.50;99.90
19809;DHT22;48538;32.784;-96.802;2022-07-03T03:10:22;28.50;99.90
19809;DHT22;48538;32.784;-96.802;2022-07-03T03:13:02;28.50;99.90
19809;DHT22;48538;32.784;-96.802;2022-07-03T03:15:34;28.40;99.90
19809;DHT22;48538;32.784;-96.802;2022-07-03T03:18:08;28.40;99.90
19809;DHT22;48538;32.784;-96.802;2022-07-03T03:20:38;28.30;99.90
19809;DHT22;48538;32.784;-96.802;2022-07-03T03:25:55;28.30;99.90
19809;DHT22;48538;32.784;-96.802;2022-07-03T03:28:21;28.20;99.90
19809;DHT22;48538;32.784;-96.802;2022-07-03T03:30:48;28.20;99.90
19809;DHT22;48538;32.784;-96.802;2022-07-03T03:33:16;28.20;99.90
19809;DHT22;48538;32.784;-96.802;2022-07-03T03:35:43;28.10;99.90
19809;DHT22;48538;32.784;-96.802;2022-07-03T03:38:09;28.20;99.90
19809;DHT22;48538;32.784;-96.802;2022-07-03T03:40:36;28.10;99.90
19809;DHT22;48538;32.784;-96.802;2022-07-03T03:43:03;28.10;99.90
19809;DHT22;48538;32.784;-96.802;2022-07-03T03:45:29;28.00;99.90
19809;DHT22;48538;32.784;-96.802;2022-07-03T03:47:56;28.10;99.90
19809;DHT22;48538;32.784;-96.802;2022-07-03T03:50:23;28.00;99.90
19809;DHT22;48538;32.784;-96.802;2022-07-03T03:52:50;28.00;99.90
19809;DHT22;48538;32.784;-96.802;2022-07-03T03:55:16;28.00;99.90
19809;DHT22;48538;32.784;-96.802;2022-07-03T03:57:42;28.00;99.90
19809;DHT22;48538;32.784;-96.802;2022-07-03T04:00:09;28.00;99.90
19809;DHT22;48538;32.784;-96.802;2022-07-03T04:02:35;28.00;99.90
19809;DHT22;48538;32.784;-96.802;2022-07-03T04:05:01;28.00;99.90
19809;DHT22;48538;32.784;-96.802;2022-07-03T04:07:28;27.90;99.90
19809;DHT22;48538;32.784;-96.802;2022-07-03T04:09:54;27.90;99.90
19809;DHT22;48538;32.784;-96.802;2022-07-03T04:12:20;27.90;99.90
19809;DHT22;48538;32.784;-96.802;2022-07-03T04:14:46;27.90;99.90
19809;DHT22;48538;32.784;-96.802;2022-07-03T04:17:13;27.90;99.90
19809;DHT22;48538;32.784;-96.802;2022-07-03T04:19:39;27.80;99.90
19809;DHT22;48538;32.784;-96.802;2022-07-03T04:22:05;27.80;99.90
19809;DHT22;48538;32.784;-96.802;2022-07-03T04:24:35;27.80;99.90
19809;DHT22;48538;32.784;-96.802;2022-07-03T04:27:02;27.80;99.90
19809;DHT22;48538;32.784;-96.802;2022-07-03T04:29:28;27.80;99.90
19809;DHT22;48538;32.784;-96.802;2022-07-03T04:31:54;27.80;99.90
19809;DHT22;48538;32.784;-96.802;2022-07-03T04:34:21;27.60;99.90
19809;DHT22;48538;32.784;-96.802;2022-07-03T04:36:47;27.60;99.90
19809;DHT22;48538;32.784;-96.802;2022-07-03T04:39:15;27.60;99.90
19809;DHT22;48538;32.784;-96.802;2022-07-03T04:41:41;27.50;99.90
19809;DHT22;48538;32.784;-96.802;2022-07-03T04:44:07;27.50;99.90
19809;DHT22;48538;32.784;-96.802;2022-07-03T04:46:33;27.50;99.90
19809;DHT22;48538;32.784;-96.802;2022-07-03T04:49:00;27.50;99.90
19809;DHT22;48538;32.784;-96.802;2022-07-03T04:51:26;27.50;99.90
19809;DHT22;48538;32.784;-96.802;2022-07-03T04:53:52;27.50;99.90
19809;DHT22;48538;32.784;-96.802;2022-07-03T04:56:18;27.40;99.90
19809;DHT22;48538;32.784;-96.802;2022-07-03T04:58:45;27.40;99.90
19809;DHT22;48538;32.784;-96.802;2022-07-03T05:01:11;27.40;99.90
19809;DHT22;48538;32.784;-96.802;2022-07-03T05:03:37;27.40;99.90
19809;DHT22;48538;32.784;-96.802;2022-07-03T05:06:04;27.40;99.90
19809;DHT22;48538;32.784;-96.802;2022-07-03T05:08:30;27.30;99.90
19809;DHT22;48538;32.784;-96.802;2022-07-03T05:10:56;27.30;99.90
19809;DHT22;48538;32.784;-96.802;2022-07-03T05:13:22;27.20;99.90
19809;DHT22;48538;32.784;-96.802;2022-07-03T05:15:49;27.20;99.90
19809;DHT22;48538;32.784;-96.802;2022-07-03T05:18:15;27.20;99.90
19809;DHT22;48538;32.784;-96.802;2022-07-03T05:20:41;27.20;99.90
19809;DHT22;48538;32.784;-96.802;2022-07-03T05:23:07;27.20;99.90
19809;DHT22;48538;32.784;-96.802;2022-07-03T05:25:34;27.10;99.90
19809;DHT22;48538;32.784;-96.802;2022-07-03T05:28:00;27.10;99.90
19809;DHT22;48538;32.784;-96.802;2022-07-03T05:30:27;27.10;99.90
19809;DHT22;48538;32.784;-96.802;2022-07-03T05:32:54;27.10;99.90
19809;DHT22;48538;32.784;-96.802;2022-07-03T05:35:20;27.10;99.90
19809;DHT22;48538;32.784;-96.802;2022-07-03T05:37:47;27.10;99.90
19809;DHT22;48538;32.784;-96.802;2022-07-03T05:40:13;27.10;99.90
19809;DHT22;48538;32.784;-96.802;2022-07-03T05:42:40;27.10;99.90
19809;DHT22;48538;32.784;-96.802;2022-07-03T05:45:07;27.10;99.90
19809;DHT22;48538;32.784;-96.802;2022-07-03T05:47:33;27.00;99.90
19809;DHT22;48538;32.784;-96.802;2022-07-03T05:50:00;27.10;99.90
19809;DHT22;48538;32.784;-96.802;2022-07-03T05:52:26;27.00;99.90
19809;DHT22;48538;32.784;-96.802;2022-07-03T05:54:52;27.00;99.90
19809;DHT22;48538;32.784;-96.802;2022-07-03T05:57:18;27.00;99.90
19809;DHT22;48538;32.784;-96.802;2022-07-03T05:59:46;27.00;99.90
19809;DHT22;48538;32.784;-96.802;2022-07-03T06:02:12;27.00;99.90
19809;DHT22;48538;32.784;-96.802;2022-07-03T06:04:38;27.00;99.90
19809;DHT22;48538;32.784;-96.802;2022-07-03T06:07:05;26.90;99.90
19809;DHT22;48538;32.784;-96.802;2022-07-03T06:09:31;26.90;99.90
19809;DHT22;48538;32.784;-96.802;2022-07-03T06:11:57;26.90;99.90
19809;DHT22;48538;32.784;-96.802;2022-07-03T06:14:23;26.90;99.90
19809;DHT22;48538;32.784;-96.802;2022-07-03T06:16:50;26.90;99.90
19809;DHT22;48538;32.784;-96.802;2022-07-03T06:19:16;26.90;99.90
19809;DHT22;48538;32.784;-96.802;2022-07-03T06:21:42;26.90;99.90
19809;DHT22;48538;32.784;-96.802;2022-07-03T06:24:10;26.90;99.90
19809;DHT22;48538;32.784;-96.802;2022-07-03T06:26:37;26.90;99.90
19809;DHT22;48538;32.784;-96.802;2022-07-03T06:29:03;26.90;99.90
19809;DHT22;48538;32.784;-96.802;2022-07-03T06:31:29;26.90;99.90
19809;DHT22;48538;32.784;-96.802;2022-07-03T06:33:57;26.80;99.90
19809;DHT22;48538;32.784;-96.802;2022-07-03T06:36:24;26.80;99.90
19809;DHT22;48538;32.784;-96.802;2022-07-03T06:38:50;26.80;99.90
19809;DHT22;48538;32.784;-96.802;2022-07-03T06:41:16;26.80;99.90
19809;DHT22;48538;32.784;-96.802;2022-07-03T06:43:43;26.80;99.90
19809;DHT22;48538;32.784;-96.802;2022-07-03T06:46:09;26.80;99.90
19809;DHT22;48538;32.784;-96.802;2022-07-03T06:48:35;26.80;99.90
19809;DHT22;48538;32.784;-96.802;2022-07-03T06:51:01;26.80;99.90
19809;DHT22;48538;32.784;-96.802;2022-07-03T06:53:27;26.80;99.90
19809;DHT22;48538;32.784;-96.802;2022-07-03T06:55:54;26.80;99.90
19809;DHT22;48538;32.784;-96.802;2022-07-03T06:58:20;26.80;99.90
19809;DHT22;48538;32.784;-96.802;2022-07-03T07:00:46;26.80;99.90
19809;DHT22;48538;32.784;-96.802;2022-07-03T07:03:13;26.80;99.90
19809;DHT22;48538;32.784;-96.802;2022-07-03T07:05:39;26.80;99.90
19809;DHT22;48538;32.784;-96.802;2022-07-03T07:08:05;26.80;99.90
19809;DHT22;48538;32.784;-96.802;2022-07-03T07:10:32;26.80;99.90
19809;DHT22;48538;32.784;-96.802;2022-07-03T07:12:58;26.70;99.90
19809;DHT22;48538;32.784;-96.802;2022-07-03T07:15:24;26.80;99.90
19809;DHT22;48538;32.784;-96.802;2022-07-03T07:17:50;26.70;99.90
19809;DHT22;48538;32.784;-96.802;2022-07-03T07:20:17;26.70;99.90
19809;DHT22;48538;32.784;-96.802;2022-07-03T07:22:43;26.70;99.90
19809;DHT22;48538;32.784;-96.802;2022-07-03T07:25:10;26.70;99.90
19809;DHT22;48538;32.784;-96.802;2022-07-03T07:27:36;26.70;99.90
19809;DHT22;48538;32.784;-96.802;2022-07-03T07:30:03;26.60;99.90
19809;DHT22;48538;32.784;-96.802;2022-07-03T07:32:29;26.70;99.90
19809;DHT22;48538;32.784;-96.802;2022-07-03T07:34:56;26.60;99.90
19809;DHT22;48538;32.784;-96.802;2022-07-03T07:37:22;26.60;99.90
19809;DHT22;48538;32.784;-96.802;2022-07-03T07:39:48;26.70;99.90
19809;DHT22;48538;32.784;-96.802;2022-07-03T07:42:14;26.70;99.90
19809;DHT22;48538;32.784;-96.802;2022-07-03T07:44:42;26.70;99.90
19809;DHT22;48538;32.784;-96.802;2022-07-03T07:47:08;26.60;99.90
19809;DHT22;48538;32.784;-96.802;2022-07-03T07:49:34;26.70;99.90
19809;DHT22;48538;32.784;-96.802;2022-07-03T07:52:00;26.60;99.90
19809;DHT22;48538;32.784;-96.802;2022-07-03T07:54:26;26.60;99.90
19809;DHT22;48538;32.784;-96.802;2022-07-03T07:56:53;26.60;99.90
19809;DHT22;48538;32.784;-96.802;2022-07-03T07:59:19;26.60;99.90
19809;DHT22;48538;32.784;-96.802;2022-07-03T08:01:45;26.60;99.90
19809;DHT22;48538;32.784;-96.802;2022-07-03T08:04:30;26.60;99.90
19809;DHT22;48538;32.784;-96.802;2022-07-03T08:07:14;26.60;99.90
19809;DHT22;48538;32.784;-96.802;2022-07-03T08:09:41;26.60;99.90
19809;DHT22;48538;32.784;-96.802;2022-07-03T08:12:07;26.60;99.90
19809;DHT22;48538;32.784;-96.802;2022-07-03T08:14:33;26.50;99.90
19809;DHT22;48538;32.784;-96.802;2022-07-03T08:17:00;26.50;99.90
19809;DHT22;48538;32.784;-96.802;2022-07-03T08:19:26;26.50;99.90
19809;DHT22;48538;32.784;-96.802;2022-07-03T08:21:52;26.50;99.90
19809;DHT22;48538;32.784;-96.802;2022-07-03T08:24:18;26.50;99.90
19809;DHT22;48538;32.784;-96.802;2022-07-03T08:26:45;26.50;99.90
19809;DHT22;48538;32.784;-96.802;2022-07-03T08:29:11;26.40;99.90
19809;DHT22;48538;32.784;-96.802;2022-07-03T08:31:37;26.40;99.90
19809;DHT22;48538;32.784;-96.802;2022-07-03T08:34:04;26.40;99.90
19809;DHT22;48538;32.784;-96.802;2022-07-03T08:36:30;26.40;99.90
19809;DHT22;48538;32.784;-96.802;2022-07-03T08:38:56;26.40;99.90
19809;DHT22;48538;32.784;-96.802;2022-07-03T08:41:22;26.40;99.90
19809;DHT22;48538;32.784;-96.802;2022-07-03T08:43:51;26.40;99.90
19809;DHT22;48538;32.784;-96.802;2022-07-03T08:46:18;26.40;99.90
19809;DHT22;48538;32.784;-96.802;2022-07-03T08:48:46;26.40;99.90
19809;DHT22;48538;32.784;-96.802;2022-07-03T08:51:14;26.30;99.90
19809;DHT22;48538;32.784;-96.802;2022-07-03T08:53:40;26.30;99.90
19809;DHT22;48538;32.784;-96.802;2022-07-03T08:56:07;26.30;99.90
19809;DHT22;48538;32.784;-96.802;2022-07-03T08:58:35;26.30;99.90
19809;DHT22;48538;32.784;-96.802;2022-07-03T09:01:01;26.30;99.90
19809;DHT22;48538;32.784;-96.802;2022-07-03T09:03:28;26.30;99.90
19809;DHT22;48538;32.784;-96.802;2022-07-03T09:05:56;26.30;99.90
19809;DHT22;48538;32.784;-96.802;2022-07-03T09:08:23;26.30;99.90
19809;DHT22;48538;32.784;-96.802;2022-07-03T09:10:52;26.30;99.90
19809;DHT22;48538;32.784;-96.802;2022-07-03T09:13:18;26.30;99.90
19809;DHT22;48538;32.784;-96.802;2022-07-03T09:15:44;26.30;99.90
19809;DHT22;48538;32.784;-96.802;2022-07-03T09:18:11;26.30;99.90
19809;DHT22;48538;32.784;-96.802;2022-07-03T09:20:40;26.30;99.90
19809;DHT22;48538;32.784;-96.802;2022-07-03T09:25:59;26.20;99.90
19809;DHT22;48538;32.784;-96.802;2022-07-03T09:28:46;26.20;99.90
19809;DHT22;48538;32.784;-96.802;2022-07-03T09:31:23;26.20;99.90
19809;DHT22;48538;32.784;-96.802;2022-07-03T09:34:04;26.20;99.90
19809;DHT22;48538;32.784;-96.802;2022-07-03T09:36:44;26.20;99.90
19809;DHT22;48538;32.784;-96.802;2022-07-03T09:39:19;26.10;99.90
19809;DHT22;48538;32.784;-96.802;2022-07-03T09:42:01;26.10;99.90
19809;DHT22;48538;32.784;-96.802;2022-07-03T09:47:16;26.10;99.90
19809;DHT22;48538;32.784;-96.802;2022-07-03T09:49:53;26.20;99.90
19809;DHT22;48538;32.784;-96.802;2022-07-03T09:54:56;26.20;99.90
19809;DHT22;48538;32.784;-96.802;2022-07-03T09:57:22;26.10;99.90
19809;DHT22;48538;32.784;-96.802;2022-07-03T09:59:49;26.10;99.90
19809;DHT22;48538;32.784;-96.802;2022-07-03T10:02:15;26.10;99.90
19809;DHT22;48538;32.784;-96.802;2022-07-03T10:04:41;26.20;99.90
19809;DHT22;48538;32.784;-96.802;2022-07-03T10:07:07;26.30;99.90
19809;DHT22;48538;32.784;-96.802;2022-07-03T10:09:34;26.30;99.90
19809;DHT22;48538;32.784;-96.802;2022-07-03T10:12:03;26.30;99.90
19809;DHT22;48538;32.784;-96.802;2022-07-03T10:14:31;26.30;99.90
19809;DHT22;48538;32.784;-96.802;2022-07-03T10:16:58;26.30;99.90
19809;DHT22;48538;32.784;-96.802;2022-07-03T10:19:30;26.30;99.90
19809;DHT22;48538;32.784;-96.802;2022-07-03T10:22:08;26.30;99.90
19809;DHT22;48538;32.784;-96.802;2022-07-03T10:24:36;26.30;99.90
19809;DHT22;48538;32.784;-96.802;2022-07-03T10:27:03;26.30;99.90
19809;DHT22;48538;32.784;-96.802;2022-07-03T10:29:30;26.20;99.90
19809;DHT22;48538;32.784;-96.802;2022-07-03T10:31:56;26.20;99.90
19809;DHT22;48538;32.784;-96.802;2022-07-03T10:34:27;26.20;99.90
19809;DHT22;48538;32.784;-96.802;2022-07-03T10:36:58;26.20;99.90
19809;DHT22;48538;32.784;-96.802;2022-07-03T10:40:01;26.20;99.90
19809;DHT22;48538;32.784;-96.802;2022-07-03T10:42:52;26.10;99.90
19809;DHT22;48538;32.784;-96.802;2022-07-03T10:46:21;26.20;99.90
19809;DHT22;48538;32.784;-96.802;2022-07-03T10:49:12;26.20;99.90
19809;DHT22;48538;32.784;-96.802;2022-07-03T10:51:59;26.20;99.90
19809;DHT22;48538;32.784;-96.802;2022-07-03T10:54:29;26.30;99.90
19809;DHT22;48538;32.784;-96.802;2022-07-03T11:15:39;26.20;99.90
19809;DHT22;48538;32.784;-96.802;2022-07-03T11:18:07;26.20;99.90
19809;DHT22;48538;32.784;-96.802;2022-07-03T11:25:46;26.10;99.90
19809;DHT22;48538;32.784;-96.802;2022-07-03T11:38:47;26.20;99.90
19809;DHT22;48538;32.784;-96.802;2022-07-03T11:41:15;26.10;99.90
19809;DHT22;48538;32.784;-96.802;2022-07-03T11:43:53;26.10;99.90
19809;DHT22;48538;32.784;-96.802;2022-07-03T11:46:24;26.10;99.90
19809;DHT22;48538;32.784;-96.802;2022-07-03T11:51:34;26.20;99.90
19809;DHT22;48538;32.784;-96.802;2022-07-03T11:54:00;26.20;99.90
19809;DHT22;48538;32.784;-96.802;2022-07-03T11:56:27;26.20;99.90
19809;DHT22;48538;32.784;-96.802;2022-07-03T11:58:58;26.20;99.90
19809;DHT22;48538;32.784;-96.802;2022-07-03T12:04:13;26.20;99.90
19809;DHT22;48538;32.784;-96.802;2022-07-03T12:06:51;26.20;99.90
19809;DHT22;48538;32.784;-96.802;2022-07-03T12:09:29;26.30;99.90
19809;DHT22;48538;32.784;-96.802;2022-07-03T12:12:08;26.30;99.90
19809;DHT22;48538;32.784;-96.802;2022-07-03T12:14:49;26.30;99.90
19809;DHT22;48538;32.784;-96.802;2022-07-03T12:17:43;26.30;99.90
19809;DHT22;48538;32.784;-96.802;2022-07-03T12:20:10;26.30;99.90
19809;DHT22;48538;32.784;-96.802;2022-07-03T12:22:36;26.40;99.90
19809;DHT22;48538;32.784;-96.802;2022-07-03T12:25:12;26.40;99.90
19809;DHT22;48538;32.784;-96.802;2022-07-03T12:27:45;26.50;99.90
19809;DHT22;48538;32.784;-96.802;2022-07-03T12:30:13;26.50;99.90
19809;DHT22;48538;32.784;-96.802;2022-07-03T12:32:45;26.60;99.90
19809;DHT22;48538;32.784;-96.802;2022-07-03T12:35:12;26.70;99.90
19809;DHT22;48538;32.784;-96.802;2022-07-03T12:37:40;26.70;99.90
19809;DHT22;48538;32.784;-96.802;2022-07-03T12:40:08;26.70;99.90
19809;DHT22;48538;32.784;-96.802;2022-07-03T12:42:46;26.80;99.90
19809;DHT22;48538;32.784;-96.802;2022-07-03T12:45:14;26.80;99.90
19809;DHT22;48538;32.784;-96.802;2022-07-03T12:47:40;26.90;99.90
19809;DHT22;48538;32.784;-96.802;2022-07-03T12:50:08;26.90;99.90
19809;DHT22;48538;32.784;-96.802;2022-07-03T12:52:49;27.00;99.90
19809;DHT22;48538;32.784;-96.802;2022-07-03T12:55:25;27.10;99.90
19809;DHT22;48538;32.784;-96.802;2022-07-03T12:58:22;27.10;99.90
19809;DHT22;48538;32.784;-96.802;2022-07-03T13:01:07;27.10;99.90
19809;DHT22;48538;32.784;-96.802;2022-07-03T13:03:49;27.20;99.90
19809;DHT22;48538;32.784;-96.802;2022-07-03T13:06:15;27.20;99.90
19809;DHT22;48538;32.784;-96.802;2022-07-03T13:08:59;27.30;99.90
19809;DHT22;48538;32.784;-96.802;2022-07-03T13:19:07;27.50;99.90
19809;DHT22;48538;32.784;-96.802;2022-07-03T13:21:34;27.50;99.90
19809;DHT22;48538;32.784;-96.802;2022-07-03T13:24:00;27.60;99.90
19809;DHT22;48538;32.784;-96.802;2022-07-03T13:26:27;27.60;99.90
19809;DHT22;48538;32.784;-96.802;2022-07-03T13:28:53;27.60;99.90
19809;DHT22;48538;32.784;-96.802;2022-07-03T13:31:19;27.70;99.90
19809;DHT22;48538;32.784;-96.802;2022-07-03T13:33:46;27.70;99.90
19809;DHT22;48538;32.784;-96.802;2022-07-03T13:36:12;27.70;99.90
19809;DHT22;48538;32.784;-96.802;2022-07-03T13:38:38;27.70;99.90
19809;DHT22;48538;32.784;-96.802;2022-07-03T13:41:05;27.70;99.90
19809;DHT22;48538;32.784;-96.802;2022-07-03T13:43:31;27.70;99.90
19809;DHT22;48538;32.784;-96.802;2022-07-03T13:45:57;27.70;99.90
19809;DHT22;48538;32.784;-96.802;2022-07-03T13:48:23;27.70;99.90
19809;DHT22;48538;32.784;-96.802;2022-07-03T13:50:49;27.70;99.90
19809;DHT22;48538;32.784;-96.802;2022-07-03T13:53:16;27.80;99.90
19809;DHT22;48538;32.784;-96.802;2022-07-03T13:55:42;27.80;99.90
19809;DHT22;48538;32.784;-96.802;2022-07-03T13:58:08;27.80;99.90
19809;DHT22;48538;32.784;-96.802;2022-07-03T14:00:38;27.90;99.90
19809;DHT22;48538;32.784;-96.802;2022-07-03T14:03:04;27.90;99.90
19809;DHT22;48538;32.784;-96.802;2022-07-03T14:05:31;27.90;99.90
19809;DHT22;48538;32.784;-96.802;2022-07-03T14:07:57;27.90;99.90
19809;DHT22;48538;32.784;-96.802;2022-07-03T14:10:24;27.90;99.90
19809;DHT22;48538;32.784;-96.802;2022-07-03T14:12:52;27.90;99.90
19809;DHT22;48538;32.784;-96.802;2022-07-03T14:15:18;27.90;99.90
19809;DHT22;48538;32.784;-96.802;2022-07-03T14:17:44;28.00;99.90
19809;DHT22;48538;32.784;-96.802;2022-07-03T14:20:11;28.00;99.90
19809;DHT22;48538;32.784;-96.802;2022-07-03T14:22:38;28.00;99.90
19809;DHT22;48538;32.784;-96.802;2022-07-03T14:25:05;27.90;99.90
19809;DHT22;48538;32.784;-96.802;2022-07-03T14:27:31;28.00;99.90
19809;DHT22;48538;32.784;-96.802;2022-07-03T14:30:16;28.00;99.90
19809;DHT22;48538;32.784;-96.802;2022-07-03T14:33:01;28.00;99.90
19809;DHT22;48538;32.784;-96.802;2022-07-03T14:35:27;28.10;99.90
19809;DHT22;48538;32.784;-96.802;2022-07-03T14:37:53;28.10;99.90
19809;DHT22;48538;32.784;-96.802;2022-07-03T14:40:19;28.10;99.90
19809;DHT22;48538;32.784;-96.802;2022-07-03T14:42:46;28.10;99.90
19809;DHT22;48538;32.784;-96.802;2022-07-03T14:45:12;28.10;99.90
19809;DHT22;48538;32.784;-96.802;2022-07-03T14:47:38;28.10;99.90
19809;DHT22;48538;32.784;-96.802;2022-07-03T14:50:04;28.20;99.90
19809;DHT22;48538;32.784;-96.802;2022-07-03T14:52:31;28.20;99.90
19809;DHT22;48538;32.784;-96.802;2022-07-03T14:54:57;28.20;99.90
19809;DHT22;48538;32.784;-96.802;2022-07-03T14:57:38;28.20;99.90
19809;DHT22;48538;32.784;-96.802;2022-07-03T15:00:13;28.30;99.90
19809;DHT22;48538;32.784;-96.802;2022-07-03T15:02:52;28.30;99.90
19809;DHT22;48538;32.784;-96.802;2022-07-03T15:05:19;28.30;99.90
19809;DHT22;48538;32.784;-96.802;2022-07-03T15:10:24;28.30;99.90
19809;DHT22;48538;32.784;-96.802;2022-07-03T15:12:52;28.30;99.90
19809;DHT22;48538;32.784;-96.802;2022-07-03T15:15:20;28.40;99.90
19809;DHT22;48538;32.784;-96.802;2022-07-03T15:17:52;28.40;99.90
19809;DHT22;48538;32.784;-96.802;2022-07-03T15:20:19;28.40;99.90
19809;DHT22;48538;32.784;-96.802;2022-07-03T15:22:47;28.50;99.90
19809;DHT22;48538;32.784;-96.802;2022-07-03T15:25:17;28.50;99.90
19809;DHT22;48538;32.784;-96.802;2022-07-03T15:27:48;28.50;99.90
19809;DHT22;48538;32.784;-96.802;2022-07-03T15:30:16;28.60;99.90
19809;DHT22;48538;32.784;-96.802;2022-07-03T15:32:45;28.50;99.90
19809;DHT22;48538;32.784;-96.802;2022-07-03T15:35:13;28.60;99.90
19809;DHT22;48538;32.784;-96.802;2022-07-03T15:37:53;28.60;99.90
19809;DHT22;48538;32.784;-96.802;2022-07-03T15:40:25;28.60;99.90
19809;DHT22;48538;32.784;-96.802;2022-07-03T15:46:03;28.60;99.90
19809;DHT22;48538;32.784;-96.802;2022-07-03T15:51:20;28.70;99.90
19809;DHT22;48538;32.784;-96.802;2022-07-03T15:53:50;28.70;99.90
19809;DHT22;48538;32.784;-96.802;2022-07-03T15:56:22;28.80;99.90
19809;DHT22;48538;32.784;-96.802;2022-07-03T15:58:50;28.80;99.90
19809;DHT22;48538;32.784;-96.802;2022-07-03T16:01:23;28.90;99.90
19809;DHT22;48538;32.784;-96.802;2022-07-03T16:04:09;28.80;99.90
19809;DHT22;48538;32.784;-96.802;2022-07-03T16:06:41;29.00;99.90
19809;DHT22;48538;32.784;-96.802;2022-07-03T16:09:08;29.00;99.90
19809;DHT22;48538;32.784;-96.802;2022-07-03T16:11:35;29.10;99.90
19809;DHT22;48538;32.784;-96.802;2022-07-03T16:14:05;29.10;99.90
19809;DHT22;48538;32.784;-96.802;2022-07-03T16:16:32;29.20;99.90
19809;DHT22;48538;32.784;-96.802;2022-07-03T16:19:04;29.20;99.90
19809;DHT22;48538;32.784;-96.802;2022-07-03T16:21:31;29.30;99.90
19809;DHT22;48538;32.784;-96.802;2022-07-03T16:24:00;29.30;99.90
19809;DHT22;48538;32.784;-96.802;2022-07-03T16:26:28;29.50;99.90
19809;DHT22;48538;32.784;-96.802;2022-07-03T16:28:55;29.60;99.90
19809;DHT22;48538;32.784;-96.802;2022-07-03T16:31:25;29.60;99.90
19809;DHT22;48538;32.784;-96.802;2022-07-03T16:34:04;29.70;99.90
19809;DHT22;48538;32.784;-96.802;2022-07-03T16:36:35;29.70;99.90
19809;DHT22;48538;32.784;-96.802;2022-07-03T16:39:06;29.80;99.90
19809;DHT22;48538;32.784;-96.802;2022-07-03T16:41:34;29.80;99.90
19809;DHT22;48538;32.784;-96.802;2022-07-03T16:44:05;29.80;99.90
19809;DHT22;48538;32.784;-96.802;2022-07-03T16:46:32;29.90;99.90
19809;DHT22;48538;32.784;-96.802;2022-07-03T16:49:00;30.00;99.90
19809;DHT22;48538;32.784;-96.802;2022-07-03T16:51:33;30.10;99.90
19809;DHT22;48538;32.784;-96.802;2022-07-03T16:54:00;30.10;99.90
19809;DHT22;48538;32.784;-96.802;2022-07-03T16:56:28;30.10;99.90
19809;DHT22;48538;32.784;-96.802;2022-07-03T16:58:56;30.10;99.90
19809;DHT22;48538;32.784;-96.802;2022-07-03T17:01:23;30.20;99.90